Hauptseite
METAR-TAF:

METAR-TAF

Flughäfen :

Flughafen Fuaʻamotu

Tongatapu, Tonga

Breite: 21-14S, Länge: 175-09W, Höhe: 38 m

Beobachtung

Neuester Wetterbericht von vor 53 Minuten, um 08:00 UTC
Wind 4 kt aus Ost
Temperatur 20°C
Luftfeuchtigkeit 78%
Luftdruck 1017 hPa
Sichtweite 10 km oder mehr
Leicht bewölkt in der Höhe von 1000 ft

METAR: NFTF 170800Z 09004KT 9999 FEW010 20/16 Q1017

Zeit: 21:53 (08:53 UTC)

Prognose

Neuester Wetterbericht von vor 3 Stunden und 53 Minuten, um 05:00 UTC
Gültige Prognose vom 17 um 06 UTC bis 18 um 06 UTC
Wind 5 kt aus Ost/Südost
Sichtweite 10 km oder mehr
Leicht bewölkt in der Höhe von 2000 ft

TAF: NFTF 170500Z 1706/1806 12005KT 9999 FEW020

Wetterbeobachtungen und Prognosen von mehr als 4000 Flughäfen (METAR und TAF Bericht).

Die verfügbaren Stationen werden durch gelbe und rote Markierungen auf der Karte dargestellt.

Führen Sie die Maus auf sie, um den Namen der Station zu sehen.

Darauf klicken, um die Beobachtung von Wetterbeobachtungen und Prognosen zu sehen.

Um die Karte zu ändern : klicken Sie auf den grünen Tasten mit einem schwarzen Kreuz Zum Vergrößern, auf den grünen Button mit einem Gedankenstrich zu verkleinern, oder auf die grünen Pfeile für benachbarte Karten.


METAR-TAF: